Latest Weather Observations for Outer Harbor (Black Pole)

IDS60901

Issued at 6:11 pm CDT Tuesday 10 December 2019 (issued every 10 minutes, with the page automatically refreshed every 10 minutes)

About weather observations | Map of Adelaide area stations | Latest observations for Adelaide area | Other Formats
Station Details ID: 023052 Name: BLACK POLE Lat: -34.73 Lon: 138.47 Height: 6.27 m
Data from the previous 72 hours. | See also: Recent months for locations in South Australia
Date/Time
CDT
Temp
°C
App
Temp
°C
Dew
Point
°C
Rel
Hum
%
Delta-T
°C
Wind Press
QNH
hPa
Press
MSL
hPa
Rain since
9am
mm
Dir  Spd
km/h
Gust
km/h
Spd
kts
Gust
kts
10/06:00pm - - - - - SSW 44 52 24 28 - - -
10/05:30pm - - - - - SSW 44 54 24 29 - - -
10/05:00pm - - - - - SSW 46 54 25 29 - - -
10/04:30pm - - - - - SSW 44 54 24 29 - - -
10/04:00pm - - - - - SSW 44 54 24 29 - - -
10/03:30pm - - - - - SSW 44 52 24 28 - - -
10/03:00pm - - - - - SSW 43 50 23 27 - - -
10/02:30pm - - - - - SSW 43 50 23 27 - - -
10/02:00pm - - - - - SSW 39 46 21 25 - - -
10/01:30pm - - - - - SSW 41 46 22 25 - - -
10/01:00pm - - - - - SSW 35 41 19 22 - - -
10/12:30pm - - - - - SSW 35 43 19 23 - - -
10/12:00pm - - - - - SSW 35 39 19 21 - - -
10/11:30am - - - - - SSW 30 37 16 20 - - -
10/11:00am - - - - - SSW 20 30 11 16 - - -
10/10:30am - - - - - SSE 13 28 7 15 - - -
10/10:00am - - - - - SSW 22 26 12 14 - - -
10/09:30am - - - - - SSE 15 24 8 13 - - -
10/09:00am - - - - - ENE 6 9 3 5 - - -
10/08:30am - - - - - ESE 9 13 5 7 - - -
10/08:00am - - - - - SE 15 20 8 11 - - -
10/07:30am - - - - - SSE 22 33 12 18 - - -
10/07:00am - - - - - SSE 24 30 13 16 - - -
10/06:30am - - - - - SSE 24 30 13 16 - - -
10/06:00am - - - - - S 28 33 15 18 - - -
10/05:30am - - - - - SSE 28 35 15 19 - - -
10/05:00am - - - - - SSE 26 33 14 18 - - -
10/04:30am - - - - - S 28 35 15 19 - - -
10/04:00am - - - - - S 28 35 15 19 - - -
10/03:30am - - - - - S 32 41 17 22 - - -
10/03:00am - - - - - S 33 41 18 22 - - -
10/02:30am - - - - - S 35 44 19 24 - - -
10/02:00am - - - - - S 37 46 20 25 - - -
10/01:30am - - - - - S 37 44 20 24 - - -
10/01:00am - - - - - S 39 46 21 25 - - -
10/12:30am - - - - - S 37 44 20 24 - - -
10/12:00am - - - - - S 39 44 21 24 - - -
 
Date/Time
CDT
Temp
°C
App
Temp
°C
Dew
Point
°C
Rel
Hum
%
Delta-T
°C
Wind Press
QNH
hPa
Press
MSL
hPa
Rain since
9am
mm
Dir  Spd
km/h
Gust
km/h
Spd
kts
Gust
kts
09/11:30pm - - - - - SSW 41 48 22 26 - - -
09/11:00pm - - - - - SSW 44 52 24 28 - - -
09/10:30pm - - - - - SSW 44 52 24 28 - - -
09/10:00pm - - - - - SW 44 50 24 27 - - -
09/09:30pm - - - - - SW 43 48 23 26 - - -
09/09:00pm - - - - - SW 41 46 22 25 - - -
09/08:30pm - - - - - SW 32 35 17 19 - - -
09/08:00pm - - - - - SSW 28 33 15 18 - - -
09/07:30pm - - - - - S 28 32 15 17 - - -
09/07:00pm - - - - - SSW 30 35 16 19 - - -
09/06:30pm - - - - - SW 26 32 14 17 - - -
09/06:00pm - - - - - S 24 30 13 16 - - -
09/05:30pm - - - - - S 35 39 19 21 - - -
09/05:00pm - - - - - S 37 43 20 23 - - -
09/04:30pm - - - - - S 39 44 21 24 - - -
09/04:00pm - - - - - S 39 48 21 26 - - -
09/03:30pm - - - - - SSW 41 50 22 27 - - -
09/03:00pm - - - - - SSW 35 43 19 23 - - -
09/02:30pm - - - - - SSW 39 43 21 23 - - -
09/02:00pm - - - - - SSW 39 46 21 25 - - -
09/01:30pm - - - - - SSW 35 41 19 22 - - -
09/01:00pm - - - - - SW 35 39 19 21 - - -
09/12:30pm - - - - - SW 33 37 18 20 - - -
09/12:00pm - - - - - SW 32 35 17 19 - - -
09/11:30am - - - - - SW 26 32 14 17 - - -
09/11:00am - - - - - SW 22 26 12 14 - - -
09/10:30am - - - - - SW 20 28 11 15 - - -
09/10:00am - - - - - SW 26 30 14 16 - - -
09/09:30am - - - - - SW 24 28 13 15 - - -
09/09:00am - - - - - SSW 19 20 10 11 - - -
09/08:30am - - - - - SSW 30 35 16 19 - - -
09/08:00am - - - - - SW 24 30 13 16 - - -
09/07:30am - - - - - W 26 32 14 17 - - -
09/07:00am - - - - - W 26 33 14 18 - - -
09/06:30am - - - - - W 13 19 7 10 - - -
09/06:00am - - - - - S 17 20 9 11 - - -
09/05:30am - - - - - SSW 24 32 13 17 - - -
09/05:00am - - - - - WSW 28 33 15 18 - - -
09/04:30am - - - - - W 28 35 15 19 - - -
09/04:00am - - - - - NW 24 32 13 17 - - -
09/03:30am - - - - - NNW 13 17 7 9 - - -
09/03:00am - - - - - N 11 17 6 9 - - -
09/02:30am - - - - - ENE 20 22 11 12 - - -
09/02:00am - - - - - ENE 15 17 8 9 - - -
09/01:30am - - - - - NW 6 13 3 7 - - -
09/01:00am - - - - - NW 24 33 13 18 - - -
09/12:43am - - - - - N 24 39 13 21 - - -
09/12:30am - - - - - NE 17 20 9 11 - - -
09/12:00am - - - - - NE 17 19 9 10 - - -
 
Date/Time
CDT
Temp
°C
App
Temp
°C
Dew
Point
°C
Rel
Hum
%
Delta-T
°C
Wind Press
QNH
hPa
Press
MSL
hPa
Rain since
9am
mm
Dir  Spd
km/h
Gust
km/h
Spd
kts
Gust
kts
08/11:30pm - - - - - NE 15 17 8 9 - - -
08/11:00pm - - - - - ENE 15 17 8 9 - - -
08/10:30pm - - - - - ENE 11 13 6 7 - - -
08/10:00pm - - - - - ENE 17 19 9 10 - - -
08/09:30pm - - - - - ENE 24 26 13 14 - - -
08/09:00pm - - - - - ENE 28 32 15 17 - - -
08/08:30pm - - - - - E 17 19 9 10 - - -
08/08:00pm - - - - - E 11 13 6 7 - - -
08/07:30pm - - - - - ESE 9 11 5 6 - - -
08/07:00pm - - - - - ESE 9 11 5 6 - - -
08/06:30pm - - - - - SSE 11 15 6 8 - - -
08/06:00pm - - - - - SSE 19 20 10 11 - - -
08/05:30pm - - - - - S 19 20 10 11 - - -
08/05:00pm - - - - - SSE 19 19 10 10 - - -
08/04:30pm - - - - - SSE 22 22 12 12 - - -
08/04:00pm - - - - - S 20 22 11 12 - - -
08/03:30pm - - - - - S 17 19 9 10 - - -
08/03:00pm - - - - - S 19 20 10 11 - - -
08/02:30pm - - - - - S 19 20 10 11 - - -
08/02:00pm - - - - - S 17 19 9 10 - - -
08/01:30pm - - - - - SW 17 19 9 10 - - -
08/01:00pm - - - - - SW 15 19 8 10 - - -
08/12:30pm - - - - - SW 17 19 9 10 - - -
08/12:00pm - - - - - NNW 15 20 8 11 - - -
08/11:30am - - - - - NNE 20 26 11 14 - - -
08/11:00am - - - - - NE 24 30 13 16 - - -
08/10:30am - - - - - NE 26 30 14 16 - - -
08/10:00am - - - - - NE 24 32 13 17 - - -
08/09:30am - - - - - NE 30 35 16 19 - - -
08/09:00am - - - - - NE 30 35 16 19 - - -
08/08:30am - - - - - NE 32 37 17 20 - - -
08/08:00am - - - - - NE 32 39 17 21 - - -
08/07:30am - - - - - NE 22 28 12 15 - - -
08/07:00am - - - - - NE 11 15 6 8 - - -
08/06:30am - - - - - NE 9 13 5 7 - - -
08/06:00am - - - - - N 2 4 1 2 - - -
08/05:30am - - - - - N 4 6 2 3 - - -
08/05:00am - - - - - CALM 0 2 0 1 - - -
08/04:30am - - - - - N 2 2 1 1 - - -
08/04:00am - - - - - NE 7 11 4 6 - - -
08/03:30am - - - - - NE 11 15 6 8 - - -
08/03:00am - - - - - NNE 11 13 6 7 - - -
08/02:30am - - - - - NE 7 9 4 5 - - -
08/02:00am - - - - - NE 9 9 5 5 - - -
08/01:30am - - - - - NE 11 13 6 7 - - -
08/01:00am - - - - - NE 13 15 7 8 - - -
08/12:30am - - - - - NE 13 15 7 8 - - -
08/12:00am - - - - - NE 13 17 7 9 - - -
 
Date/Time
CDT
Temp
°C
App
Temp
°C
Dew
Point
°C
Rel
Hum
%
Delta-T
°C
Wind Press
QNH
hPa
Press
MSL
hPa
Rain since
9am
mm
Dir  Spd
km/h
Gust
km/h
Spd
kts
Gust
kts
07/11:30pm - - - - - NE 13 17 7 9 - - -
07/11:00pm - - - - - NE 11 15 6 8 - - -
07/10:30pm - - - - - ENE 13 15 7 8 - - -
07/10:00pm - - - - - E 15 17 8 9 - - -
07/09:30pm - - - - - E 15 17 8 9 - - -
07/09:00pm - - - - - SE 6 7 3 4 - - -
07/08:30pm - - - - - SSW 9 11 5 6 - - -
07/08:00pm - - - - - SSW 9 13 5 7 - - -
07/07:30pm - - - - - SSW 15 20 8 11 - - -
07/07:00pm - - - - - SSW 22 26 12 14 - - -
07/06:30pm - - - - - SSW 24 28 13 15 - - -

Latest Capital City Observations: Canberra | Sydney | Melbourne | Brisbane | Adelaide | Perth | Hobart | Darwin

Other formats

Comma delimited format used in spreadsheet applications
http://www.bom.gov.au/fwo/IDS60901/IDS60901.95675.axf

JavaScript Object Notation format (JSON) in row-major order
http://www.bom.gov.au/fwo/IDS60901/IDS60901.95675.json

Data quality

Most of these data are generated automatically and are frequently updated. Quality checks on data are not normally performed. It is possible for incorrect values to appear. Refer to information at About Latest Weather Observations and please check the disclaimer before using these data.